createdAt,value
2023-08-03T00:01:56.112Z,98017.97
2023-08-03T00:04:34.686Z,98013.59
2023-08-03T00:07:12.184Z,98019.03
2023-08-03T00:09:51.658Z,98016.94
2023-08-03T00:12:21.478Z,98014.88
2023-08-03T00:14:51.968Z,98022.38
2023-08-03T00:17:20.077Z,98025.13
2023-08-03T00:19:49.763Z,98025.19
2023-08-03T00:22:23.291Z,98020.34
2023-08-03T00:25:03.663Z,98019.19
2023-08-03T00:27:46.581Z,98032.69
2023-08-03T00:30:17.449Z,98040.41
2023-08-03T00:32:49.284Z,98043.53
2023-08-03T00:35:22.594Z,98039.47
2023-08-03T00:38:09.980Z,98041.41
2023-08-03T00:40:40.565Z,98050.81
2023-08-03T00:43:17.089Z,98064.84
2023-08-03T00:45:47.150Z,98065.59
2023-08-03T00:48:20.405Z,98074.53
2023-08-03T00:50:51.538Z,98080.63
2023-08-03T00:53:23.401Z,98087.97
2023-08-03T00:55:51.984Z,98088.22
2023-08-03T00:58:24.321Z,98083.78
2023-08-03T01:00:56.642Z,98082.91
2023-08-03T01:03:33.784Z,98097.19
2023-08-03T01:06:02.424Z,98086.31
2023-08-03T01:08:40.791Z,98091.88
2023-08-03T01:11:11.569Z,98096.47
2023-08-03T01:13:49.921Z,98093.91
2023-08-03T01:16:26.128Z,98090.69
2023-08-03T01:18:55.647Z,98105.38
2023-08-03T01:21:27.386Z,98103.59
2023-08-03T01:24:03.768Z,98105.00
2023-08-03T01:26:32.718Z,98119.56
2023-08-03T01:29:03.273Z,98118.38
2023-08-03T01:31:37.121Z,98115.53
2023-08-03T01:34:12.045Z,98133.97
2023-08-03T01:36:40.562Z,98149.56
2023-08-03T01:39:20.365Z,98152.19
2023-08-03T01:41:51.529Z,98156.53
2023-08-03T01:44:27.662Z,98149.13
2023-08-03T01:47:08.908Z,98148.72
2023-08-03T01:49:37.137Z,98144.25
2023-08-03T01:52:06.747Z,98144.50
2023-08-03T01:54:38.834Z,98138.81
2023-08-03T01:57:07.666Z,98144.38
2023-08-03T01:59:36.200Z,98143.63
2023-08-03T02:02:09.411Z,98147.88
2023-08-03T02:04:40.611Z,98151.81
2023-08-03T02:07:21.145Z,98160.72
2023-08-03T02:10:02.730Z,98165.16
2023-08-03T02:12:32.639Z,98164.19
2023-08-03T02:15:06.209Z,98168.53
2023-08-03T02:17:37.142Z,98171.44
2023-08-03T02:20:07.310Z,98190.16
2023-08-03T02:22:38.942Z,98189.84
2023-08-03T02:25:16.186Z,98200.47
2023-08-03T02:27:45.822Z,98222.59
2023-08-03T02:30:17.898Z,98206.72
2023-08-03T02:32:54.756Z,98235.63
2023-08-03T02:35:29.948Z,98246.97
2023-08-03T02:38:10.336Z,98259.03
2023-08-03T02:40:45.604Z,98284.06
2023-08-03T02:43:31.671Z,98293.47
2023-08-03T02:46:01.438Z,98299.56
2023-08-03T02:48:40.688Z,98313.28
2023-08-03T02:51:19.282Z,98332.78
2023-08-03T02:53:51.314Z,98329.25
2023-08-03T02:56:22.074Z,98334.03
2023-08-03T02:58:58.046Z,98339.31
2023-08-03T03:01:38.069Z,98344.66
2023-08-03T03:04:08.298Z,98353.75
2023-08-03T03:06:43.768Z,98337.28
2023-08-03T03:09:18.633Z,98347.38
2023-08-03T03:12:02.695Z,98343.06
2023-08-03T03:14:47.790Z,98330.53
2023-08-03T03:17:31.946Z,98348.81
2023-08-03T03:20:04.697Z,98368.41
2023-08-03T03:22:33.100Z,98363.00
2023-08-03T03:25:07.209Z,98372.22
2023-08-03T03:27:38.061Z,98391.72
2023-08-03T03:30:09.080Z,98386.28
2023-08-03T03:32:37.908Z,98393.09
2023-08-03T03:35:09.647Z,98399.06
2023-08-03T03:37:38.398Z,98391.94
2023-08-03T03:40:10.392Z,98408.06
2023-08-03T03:42:48.900Z,98400.84
2023-08-03T03:45:30.097Z,98409.50
2023-08-03T03:48:04.169Z,98398.03
2023-08-03T03:50:42.835Z,98413.03
2023-08-03T03:53:11.615Z,98423.41
2023-08-03T03:55:48.004Z,98417.47
2023-08-03T03:58:26.925Z,98431.56
2023-08-03T04:00:57.653Z,98437.56
2023-08-03T04:03:30.001Z,98431.84
2023-08-03T04:06:07.850Z,98442.53
2023-08-03T04:08:37.450Z,98440.78
2023-08-03T04:11:14.225Z,98451.00
2023-08-03T04:13:43.737Z,98451.53
2023-08-03T04:16:14.703Z,98442.72
2023-08-03T04:18:46.860Z,98447.22
2023-08-03T04:21:20.077Z,98446.09
2023-08-03T04:23:48.681Z,98456.09
2023-08-03T04:26:18.360Z,98456.63
2023-08-03T04:28:48.770Z,98466.97
2023-08-03T04:31:23.728Z,98468.22
2023-08-03T04:33:53.587Z,98475.09
2023-08-03T04:36:25.142Z,98472.38
2023-08-03T04:38:55.961Z,98475.88
2023-08-03T04:41:30.033Z,98487.59
2023-08-03T04:44:02.273Z,98486.31
2023-08-03T04:46:36.792Z,98495.66
2023-08-03T04:49:11.486Z,98502.53
2023-08-03T04:51:46.681Z,98512.22
2023-08-03T04:54:20.550Z,98512.75
2023-08-03T04:56:49.439Z,98515.63
2023-08-03T04:59:21.639Z,98529.84
2023-08-03T05:01:51.542Z,98522.09
2023-08-03T05:04:20.535Z,98527.41
2023-08-03T05:06:52.276Z,98540.53
2023-08-03T05:09:24.149Z,98524.28
2023-08-03T05:11:53.281Z,98535.63
2023-08-03T05:14:25.432Z,98537.19
2023-08-03T05:16:59.758Z,98526.91
2023-08-03T05:19:28.516Z,98536.59
2023-08-03T05:21:58.759Z,98540.81
2023-08-03T05:24:44.692Z,98560.06
2023-08-03T05:27:17.492Z,98550.13
2023-08-03T05:29:59.662Z,98530.75
2023-08-03T05:32:49.962Z,98543.75
2023-08-03T05:35:20.160Z,98541.78
2023-08-03T05:37:50.480Z,98549.25
2023-08-03T05:40:22.362Z,98539.97
2023-08-03T05:42:50.553Z,98549.03
2023-08-03T05:45:46.019Z,98531.19
2023-08-03T05:48:20.083Z,98538.88
2023-08-03T05:50:52.108Z,98544.00
2023-08-03T05:53:21.152Z,98538.94
2023-08-03T05:56:05.456Z,98531.91
2023-08-03T05:58:44.255Z,98546.31
2023-08-03T06:01:22.730Z,98524.72
2023-08-03T06:03:54.294Z,98532.56
2023-08-03T06:06:35.207Z,98533.22
2023-08-03T06:09:06.022Z,98525.69
2023-08-03T06:11:34.619Z,98543.16
2023-08-03T06:14:04.590Z,98549.91
2023-08-03T06:16:37.062Z,98543.81
2023-08-03T06:19:07.649Z,98541.78
2023-08-03T06:21:45.474Z,98553.31
2023-08-03T06:24:17.872Z,98551.56
2023-08-03T06:26:47.483Z,98559.75
2023-08-03T06:29:20.927Z,98563.94
2023-08-03T06:31:59.943Z,98563.59
2023-08-03T06:34:30.144Z,98567.63
2023-08-03T06:37:01.746Z,98559.97
2023-08-03T06:39:30.870Z,98568.53
2023-08-03T06:42:18.228Z,98560.88
2023-08-03T06:44:52.440Z,98560.97
2023-08-03T06:47:29.031Z,98565.13
2023-08-03T06:50:00.521Z,98554.06
2023-08-03T06:52:35.677Z,98565.78
2023-08-03T06:55:05.375Z,98578.91
2023-08-03T06:57:36.134Z,98573.13
2023-08-03T07:00:05.544Z,98585.16
2023-08-03T07:02:44.792Z,98578.56
2023-08-03T07:05:20.400Z,98586.94
2023-08-03T07:07:52.208Z,98596.28
2023-08-03T07:10:30.850Z,98590.78
2023-08-03T07:13:00.342Z,98587.69
2023-08-03T07:15:38.350Z,98596.16
2023-08-03T07:18:21.101Z,98599.34
2023-08-03T07:21:03.334Z,98602.97
2023-08-03T07:23:33.191Z,98610.69
2023-08-03T07:26:06.644Z,98620.56
2023-08-03T07:28:37.328Z,98613.84
2023-08-03T07:31:08.374Z,98606.84
2023-08-03T07:33:45.638Z,98613.97
2023-08-03T07:36:29.331Z,98614.34
2023-08-03T07:38:58.752Z,98617.00
2023-08-03T07:41:28.376Z,98625.44
2023-08-03T07:44:03.276Z,98620.41
2023-08-03T07:46:33.419Z,98633.75
2023-08-03T07:49:11.317Z,98638.13
2023-08-03T07:51:43.843Z,98633.41
2023-08-03T07:54:20.522Z,98646.19
2023-08-03T07:56:58.361Z,98641.53
2023-08-03T07:59:29.491Z,98639.53
2023-08-03T08:02:00.166Z,98642.69
2023-08-03T08:04:35.141Z,98646.97
2023-08-03T08:07:09.332Z,98633.19
2023-08-03T08:09:43.497Z,98652.34
2023-08-03T08:12:12.707Z,98658.16
2023-08-03T08:14:54.729Z,98659.06
2023-08-03T08:17:26.594Z,98660.31
2023-08-03T08:20:18.154Z,98661.00
2023-08-03T08:22:47.014Z,98660.69
2023-08-03T08:25:19.005Z,98639.66
2023-08-03T08:27:48.819Z,98662.84
2023-08-03T08:30:20.565Z,98654.59
2023-08-03T08:32:52.606Z,98666.78
2023-08-03T08:35:29.603Z,98674.03
2023-08-03T08:38:01.515Z,98660.63
2023-08-03T08:40:29.777Z,98670.66
2023-08-03T08:43:07.811Z,98682.22
2023-08-03T08:45:43.932Z,98677.38
2023-08-03T08:54:17.958Z,98686.59
2023-08-03T09:01:54.023Z,98697.97
2023-08-03T09:04:38.932Z,98703.53
2023-08-03T09:07:26.712Z,98713.97
2023-08-03T09:10:06.521Z,98719.41
2023-08-03T09:12:35.752Z,98706.59
2023-08-03T09:15:11.948Z,98718.34
2023-08-03T09:17:43.717Z,98727.22
2023-08-03T09:25:41.916Z,98727.56
2023-08-03T09:33:36.565Z,98734.09
2023-08-03T09:44:25.946Z,98712.72
2023-08-03T09:47:06.483Z,98716.13
2023-08-03T09:49:36.129Z,98722.25
2023-08-03T09:52:14.075Z,98732.31
2023-08-03T09:57:37.475Z,98708.34
2023-08-03T10:00:14.890Z,98714.38
2023-08-03T10:02:54.173Z,98710.81
2023-08-03T10:05:30.466Z,98717.09
2023-08-03T10:08:08.143Z,98710.34
2023-08-03T10:11:01.321Z,98717.53
2023-08-03T10:13:38.380Z,98715.06
2023-08-03T10:16:07.629Z,98735.03
2023-08-03T10:18:58.325Z,98753.69
2023-08-03T10:21:29.650Z,98764.94
2023-08-03T10:24:16.455Z,98771.41
2023-08-03T10:26:52.491Z,98776.28
2023-08-03T10:29:55.922Z,98767.91
2023-08-03T10:32:26.582Z,98771.66
2023-08-03T10:34:59.532Z,98776.88
2023-08-03T10:37:30.796Z,98790.22
2023-08-03T10:40:02.049Z,98800.13
2023-08-03T10:42:38.617Z,98805.56
2023-08-03T10:45:34.064Z,98797.44
2023-08-03T10:48:38.693Z,98802.03
2023-08-03T10:51:10.840Z,98789.28
2023-08-03T10:53:42.193Z,98780.63
2023-08-03T10:56:15.554Z,98778.63
2023-08-03T10:58:59.147Z,98774.53
2023-08-03T11:01:29.659Z,98778.66
2023-08-03T11:04:02.427Z,98771.22
2023-08-03T11:06:42.061Z,98765.88
2023-08-03T11:09:14.123Z,98763.41
2023-08-03T11:11:47.517Z,98768.38
2023-08-03T11:14:21.081Z,98777.47
2023-08-03T11:16:50.617Z,98770.00
2023-08-03T11:19:21.717Z,98773.06
2023-08-03T11:21:51.447Z,98762.94
2023-08-03T11:24:22.204Z,98768.84
2023-08-03T11:27:00.521Z,98774.88
2023-08-03T11:29:35.842Z,98778.16
2023-08-03T11:32:06.499Z,98777.09
2023-08-03T11:34:35.157Z,98770.81
2023-08-03T11:37:06.752Z,98775.06
2023-08-03T11:39:35.854Z,98778.50
2023-08-03T11:42:06.634Z,98789.25
2023-08-03T11:44:55.112Z,98806.97
2023-08-03T11:47:27.650Z,98815.28
2023-08-03T11:50:01.619Z,98823.03
2023-08-03T11:52:32.357Z,98812.88
2023-08-03T11:55:07.306Z,98806.38
2023-08-03T11:57:55.172Z,98801.81
2023-08-03T12:00:29.769Z,98806.03
2023-08-03T12:03:04.258Z,98815.66
2023-08-03T12:05:52.579Z,98823.69
2023-08-03T12:08:32.885Z,98836.16
2023-08-03T12:11:07.285Z,98824.91
2023-08-03T12:16:34.390Z,98822.38
2023-08-03T12:19:09.559Z,98816.69
2023-08-03T12:21:39.445Z,98826.97
2023-08-03T12:24:10.983Z,98823.09
2023-08-03T12:26:42.952Z,98825.09
2023-08-03T12:29:12.197Z,98829.81
2023-08-03T12:31:45.037Z,98824.22
2023-08-03T12:34:19.188Z,98823.78
2023-08-03T12:36:49.430Z,98824.59
2023-08-03T12:39:26.995Z,98831.25
2023-08-03T12:42:07.734Z,98834.66
2023-08-03T12:44:39.608Z,98834.44
2023-08-03T12:47:11.895Z,98829.94
2023-08-03T12:49:50.106Z,98832.88
2023-08-03T12:52:18.516Z,98822.69
2023-08-03T12:54:59.263Z,98826.41
2023-08-03T12:57:35.631Z,98842.00
2023-08-03T13:00:08.619Z,98841.63
2023-08-03T13:02:42.111Z,98843.41
2023-08-03T13:05:13.581Z,98848.25
2023-08-03T13:07:54.920Z,98851.31
2023-08-03T13:10:23.440Z,98850.25
2023-08-03T13:12:59.562Z,98848.91
2023-08-03T13:15:38.628Z,98856.63
2023-08-03T13:18:23.738Z,98856.47
2023-08-03T13:21:02.500Z,98859.22
2023-08-03T13:23:31.976Z,98855.47
2023-08-03T13:26:11.100Z,98849.06
2023-08-03T13:28:40.396Z,98844.66
2023-08-03T13:31:11.087Z,98857.25
2023-08-03T13:33:44.971Z,98851.53
2023-08-03T13:36:15.232Z,98857.94
2023-08-03T13:38:47.023Z,98854.13
2023-08-03T13:41:16.408Z,98858.84
2023-08-03T13:43:55.616Z,98868.59
2023-08-03T13:46:31.905Z,98867.22
2023-08-03T13:49:15.353Z,98864.88
2023-08-03T13:51:51.764Z,98865.63
2023-08-03T13:54:28.447Z,98867.88
2023-08-03T13:57:02.060Z,98865.53
2023-08-03T13:59:41.549Z,98855.88
2023-08-03T14:02:14.906Z,98851.69
2023-08-03T14:05:01.567Z,98862.50
2023-08-03T14:23:21.280Z,98856.91
2023-08-03T14:25:56.274Z,98853.56
2023-08-03T14:31:02.272Z,98851.91
2023-08-03T14:33:31.361Z,98859.00
2023-08-03T14:36:17.318Z,98852.53
2023-08-03T14:38:48.640Z,98861.41
2023-08-03T14:41:26.940Z,98850.84
2023-08-03T14:44:06.569Z,98854.75
2023-08-03T14:46:38.131Z,98852.75
2023-08-03T14:49:11.154Z,98853.22
2023-08-03T14:54:17.104Z,98850.63
2023-08-03T14:56:48.573Z,98855.03
2023-08-03T15:02:09.461Z,98856.63
2023-08-03T15:04:44.855Z,98846.38
2023-08-03T15:07:25.827Z,98862.69
2023-08-03T15:10:01.860Z,98865.16
2023-08-03T15:12:32.777Z,98866.94
2023-08-03T15:17:38.835Z,98859.69
2023-08-03T15:20:23.703Z,98862.78
2023-08-03T15:23:13.064Z,98868.22
2023-08-03T15:25:41.835Z,98866.66
2023-08-03T15:28:33.360Z,98870.38
2023-08-03T15:31:17.172Z,98860.47
2023-08-03T15:33:51.107Z,98854.19
2023-08-03T15:36:43.644Z,98856.13
2023-08-03T15:39:32.529Z,98842.50
2023-08-03T15:42:06.442Z,98835.78
2023-08-03T15:44:45.102Z,98835.88
2023-08-03T15:47:43.291Z,98841.97
2023-08-03T15:50:12.262Z,98852.41
2023-08-03T15:53:13.778Z,98846.09
2023-08-03T15:58:29.346Z,98862.00
2023-08-03T16:01:17.631Z,98843.47
2023-08-03T16:04:04.542Z,98856.97
2023-08-03T16:06:42.377Z,98854.34
2023-08-03T16:09:20.289Z,98858.88
2023-08-03T16:11:56.838Z,98857.28
2023-08-03T16:14:29.127Z,98854.41
2023-08-03T16:17:10.276Z,98858.78
2023-08-03T16:19:54.119Z,98865.63
2023-08-03T16:22:24.847Z,98860.66
2023-08-03T16:25:08.039Z,98854.53
2023-08-03T16:27:51.336Z,98853.22
2023-08-03T16:30:23.522Z,98847.56
2023-08-03T16:32:57.083Z,98842.81
2023-08-03T16:35:32.944Z,98843.97
2023-08-03T16:38:06.941Z,98855.78
2023-08-03T16:40:42.210Z,98852.66
2023-08-03T16:43:19.593Z,98856.03
2023-08-03T16:46:00.403Z,98862.88
2023-08-03T16:48:54.063Z,98851.34
2023-08-03T16:51:29.448Z,98846.81
2023-08-03T16:54:02.599Z,98851.22
2023-08-03T16:56:33.635Z,98840.13
2023-08-03T16:59:09.945Z,98832.59
2023-08-03T17:01:47.021Z,98839.38
2023-08-03T17:04:18.076Z,98844.28
2023-08-03T17:06:50.864Z,98852.41
2023-08-03T17:09:27.497Z,98856.56
2023-08-03T17:12:09.981Z,98856.25
2023-08-03T17:14:56.632Z,98850.34
2023-08-03T17:17:37.329Z,98845.25
2023-08-03T17:20:19.190Z,98840.28
2023-08-03T17:23:00.737Z,98830.97
2023-08-03T17:25:40.447Z,98836.53
2023-08-03T17:28:23.775Z,98844.94
2023-08-03T17:31:02.602Z,98855.66
2023-08-03T17:33:34.955Z,98854.13
2023-08-03T17:36:15.688Z,98854.72
2023-08-03T17:38:52.212Z,98865.09
2023-08-03T17:41:36.351Z,98866.16
2023-08-03T17:44:11.383Z,98874.78
2023-08-03T17:46:49.421Z,98883.41
2023-08-03T17:49:25.200Z,98879.56
2023-08-03T17:51:59.505Z,98885.50
2023-08-03T17:54:31.766Z,98881.38
2023-08-03T17:57:06.000Z,98879.94
2023-08-03T17:59:40.276Z,98876.25
2023-08-03T18:02:38.769Z,98889.69
2023-08-03T18:05:19.458Z,98894.44
2023-08-03T18:07:57.933Z,98909.56
2023-08-03T18:10:32.862Z,98902.56
2023-08-03T18:13:11.462Z,98909.56
2023-08-03T18:15:47.147Z,98918.41
2023-08-03T18:18:23.686Z,98901.09
2023-08-03T18:21:04.213Z,98911.00
2023-08-03T18:23:40.883Z,98900.97
2023-08-03T18:26:20.672Z,98898.25
2023-08-03T18:28:52.295Z,98908.41
2023-08-03T18:31:25.888Z,98908.28
2023-08-03T18:34:11.004Z,98910.69
2023-08-03T18:36:57.183Z,98917.25
2023-08-03T18:39:33.667Z,98925.94
2023-08-03T18:42:31.425Z,98930.91
2023-08-03T18:45:06.664Z,98924.69
2023-08-03T18:47:45.090Z,98915.22
2023-08-03T18:50:30.002Z,98913.25
2023-08-03T18:53:03.885Z,98887.03
2023-08-03T18:55:41.398Z,98904.31
2023-08-03T18:58:15.669Z,98904.94
2023-08-03T19:00:49.381Z,98916.34
2023-08-03T19:03:22.446Z,98924.78
2023-08-03T19:06:07.517Z,98915.75
2023-08-03T19:08:49.442Z,98919.38
2023-08-03T19:11:40.428Z,98917.25
2023-08-03T19:14:20.818Z,98933.19
2023-08-03T19:16:56.181Z,98929.00
2023-08-03T19:19:34.126Z,98930.00
2023-08-03T19:22:20.680Z,98924.94
2023-08-03T19:25:04.253Z,98929.09
2023-08-03T19:27:39.967Z,98931.97
2023-08-03T19:30:14.410Z,98922.31
2023-08-03T19:32:54.081Z,98933.25
2023-08-03T19:35:30.454Z,98929.41
2023-08-03T19:38:20.337Z,98930.97
2023-08-03T19:40:56.740Z,98921.84
2023-08-03T19:43:38.666Z,98923.44
2023-08-03T19:46:23.513Z,98911.97
2023-08-03T19:48:58.641Z,98900.16
2023-08-03T19:57:03.042Z,98896.09
2023-08-03T20:00:50.676Z,98899.53
2023-08-03T20:10:56.385Z,98950.81
2023-08-03T20:19:24.510Z,98955.38
2023-08-03T20:22:07.738Z,98954.88
2023-08-03T20:24:48.380Z,98949.97
2023-08-03T20:27:28.514Z,98952.53
2023-08-03T20:30:13.045Z,98959.25
2023-08-03T20:32:49.159Z,98956.28
2023-08-03T20:38:09.046Z,98958.88
2023-08-03T20:40:48.908Z,98973.81
2023-08-03T20:45:55.594Z,98969.09
2023-08-03T20:51:06.552Z,98955.25
2023-08-03T20:53:37.793Z,98945.22
2023-08-03T20:56:11.102Z,98941.91
2023-08-03T20:58:46.677Z,98937.16
2023-08-03T21:01:20.679Z,98946.38
2023-08-03T21:03:48.928Z,98927.06
2023-08-03T21:06:21.560Z,98948.75
2023-08-03T21:08:53.456Z,98957.97
2023-08-03T21:11:24.332Z,98958.47
2023-08-03T21:13:57.448Z,98946.28
2023-08-03T21:16:28.285Z,98945.91
2023-08-03T21:21:36.494Z,98934.44
2023-08-03T21:24:09.778Z,98929.72
2023-08-03T21:26:46.549Z,98919.00
2023-08-03T21:29:21.964Z,98919.97
2023-08-03T21:31:53.065Z,98919.63
2023-08-03T21:34:24.958Z,98919.28
2023-08-03T21:36:53.928Z,98920.81
2023-08-03T21:39:24.438Z,98914.78
2023-08-03T21:41:52.900Z,98920.03
2023-08-03T21:44:25.499Z,98924.59
2023-08-03T21:46:55.159Z,98925.25
2023-08-03T21:49:31.575Z,98926.81
2023-08-03T21:52:05.121Z,98935.63
2023-08-03T21:54:36.976Z,98928.50
2023-08-03T21:57:08.660Z,98926.34
2023-08-03T21:59:44.935Z,98927.78
2023-08-03T22:02:16.245Z,98931.59
2023-08-03T22:04:45.879Z,98938.34
2023-08-03T22:07:19.285Z,98939.56
2023-08-03T22:09:56.285Z,98938.47
2023-08-03T22:12:29.617Z,98935.75
2023-08-03T22:15:13.994Z,98923.88
2023-08-03T22:17:50.382Z,98928.38
2023-08-03T22:20:23.297Z,98938.16
2023-08-03T22:22:52.122Z,98947.94
2023-08-03T22:25:21.691Z,98954.97
2023-08-03T22:27:55.811Z,98959.94
2023-08-03T22:30:40.678Z,98954.84
2023-08-03T22:33:12.021Z,98968.31
2023-08-03T22:35:46.276Z,98974.84
2023-08-03T22:38:15.186Z,98982.41
2023-08-03T22:40:49.187Z,98995.09
2023-08-03T22:43:23.739Z,98995.19
2023-08-03T22:45:55.764Z,98994.19
2023-08-03T22:48:24.598Z,98989.06
2023-08-03T22:50:57.937Z,99001.06
2023-08-03T22:53:28.382Z,99004.63
2023-08-03T22:56:07.105Z,99012.31
2023-08-03T22:58:41.522Z,99022.16
2023-08-03T23:01:24.854Z,99018.31
2023-08-03T23:03:54.728Z,99025.13
2023-08-03T23:06:25.537Z,99016.31
2023-08-03T23:08:57.991Z,99019.53
2023-08-03T23:11:33.835Z,99018.09
2023-08-03T23:14:05.584Z,99025.03
2023-08-03T23:16:45.253Z,99036.31
2023-08-03T23:19:16.131Z,99022.81
2023-08-03T23:21:47.659Z,99009.28
2023-08-03T23:24:17.362Z,98999.41
2023-08-03T23:26:57.404Z,98988.03
2023-08-03T23:29:29.086Z,98967.06
2023-08-03T23:32:04.555Z,98971.69
2023-08-03T23:34:37.652Z,99001.78
2023-08-03T23:37:07.375Z,99028.63
2023-08-03T23:39:37.078Z,99019.97
2023-08-03T23:42:11.063Z,98993.97
2023-08-03T23:44:40.773Z,98988.72
2023-08-03T23:47:20.771Z,98997.13
2023-08-03T23:49:58.636Z,98999.88
2023-08-03T23:52:29.375Z,98975.56
2023-08-03T23:55:01.358Z,98951.75
2023-08-03T23:57:35.341Z,98957.72
